createdAt,value
2018-12-08T00:01:55.090Z,8.10
2018-12-08T00:09:18.219Z,8.00
2018-12-08T00:11:46.006Z,8.00
2018-12-08T00:14:13.479Z,8.00
2018-12-08T00:16:41.140Z,8.00
2018-12-08T00:19:08.618Z,8.10
2018-12-08T00:24:03.583Z,8.10
2018-12-08T00:36:27.215Z,8.10
2018-12-08T00:38:54.892Z,8.10
2018-12-08T00:41:22.494Z,8.00
2018-12-08T00:43:50.011Z,8.00
2018-12-08T00:46:17.509Z,8.00
2018-12-08T00:48:49.483Z,8.00
2018-12-08T00:51:16.937Z,8.00
2018-12-08T00:53:44.506Z,8.00
2018-12-08T00:56:12.844Z,8.10
2018-12-08T00:58:40.861Z,8.10
2018-12-08T01:01:08.388Z,8.10
2018-12-08T01:03:36.023Z,8.00
2018-12-08T01:06:04.281Z,8.00
2018-12-08T01:08:32.975Z,8.10
2018-12-08T01:11:00.564Z,8.10
2018-12-08T01:13:28.066Z,8.10
2018-12-08T01:15:56.463Z,8.00
2018-12-08T01:18:24.250Z,8.00
2018-12-08T01:20:51.984Z,8.00
2018-12-08T01:23:19.564Z,7.90
2018-12-08T01:25:47.122Z,7.90
2018-12-08T01:28:15.299Z,7.90
2018-12-08T01:30:42.787Z,7.80
2018-12-08T01:33:10.319Z,7.80
2018-12-08T01:35:37.812Z,7.80
2018-12-08T01:38:05.366Z,7.80
2018-12-08T01:40:32.890Z,7.90
2018-12-08T01:43:01.522Z,7.80
2018-12-08T01:45:29.054Z,7.80
2018-12-08T01:47:56.860Z,7.80
2018-12-08T01:50:24.518Z,7.80
2018-12-08T01:52:52.156Z,7.80
2018-12-08T01:55:19.699Z,7.80
2018-12-08T01:57:47.156Z,7.80
2018-12-08T02:00:15.270Z,7.90
2018-12-08T02:05:10.269Z,7.90
2018-12-08T02:07:38.806Z,8.20
2018-12-08T02:10:06.674Z,7.80
2018-12-08T02:12:34.211Z,7.70
2018-12-08T02:15:01.886Z,7.90
2018-12-08T02:17:29.421Z,7.80
2018-12-08T02:19:56.887Z,7.80
2018-12-08T02:22:24.433Z,7.90
2018-12-08T02:27:20.521Z,7.90
2018-12-08T02:29:48.620Z,8.00
2018-12-08T02:32:16.267Z,7.90
2018-12-08T02:37:12.132Z,7.90
2018-12-08T02:39:41.639Z,7.90
2018-12-08T02:42:09.782Z,7.90
2018-12-08T02:44:37.229Z,7.90
2018-12-08T02:47:04.711Z,7.90
2018-12-08T02:49:32.310Z,7.80
2018-12-08T02:54:27.706Z,7.80
2018-12-08T02:59:22.575Z,7.70
2018-12-08T03:04:17.528Z,7.70
2018-12-08T03:06:44.980Z,7.70
2018-12-08T03:09:12.443Z,7.70
2018-12-08T03:11:39.917Z,7.70
2018-12-08T03:14:07.412Z,7.80
2018-12-08T03:19:02.362Z,7.60
2018-12-08T03:21:29.998Z,7.60
2018-12-08T03:23:57.736Z,7.60
2018-12-08T03:26:25.312Z,7.50
2018-12-08T03:28:52.749Z,7.40
2018-12-08T03:31:20.228Z,7.40
2018-12-08T03:33:47.828Z,7.40
2018-12-08T03:36:15.854Z,7.40
2018-12-08T03:38:44.059Z,7.40
2018-12-08T03:41:12.206Z,7.40
2018-12-08T03:43:39.674Z,7.40
2018-12-08T03:46:07.146Z,7.30
2018-12-08T03:48:34.641Z,7.40
2018-12-08T03:53:29.536Z,7.30
2018-12-08T03:55:57.044Z,7.30
2018-12-08T03:58:24.537Z,7.30
2018-12-08T04:03:20.088Z,7.30
2018-12-08T04:05:47.702Z,7.30
2018-12-08T04:08:15.209Z,7.30
2018-12-08T04:10:42.825Z,7.30
2018-12-08T04:13:10.478Z,7.30
2018-12-08T04:15:38.386Z,7.40
2018-12-08T04:18:05.850Z,7.40
2018-12-08T04:20:33.993Z,7.40
2018-12-08T04:23:02.094Z,7.50
2018-12-08T04:25:29.573Z,7.50
2018-12-08T04:27:57.082Z,7.50
2018-12-08T04:30:24.654Z,7.40
2018-12-08T04:32:52.314Z,7.50
2018-12-08T04:35:19.848Z,7.40
2018-12-08T04:37:47.423Z,7.40
2018-12-08T04:40:14.978Z,7.30
2018-12-08T04:42:42.421Z,7.40
2018-12-08T04:45:09.970Z,7.40
2018-12-08T04:50:05.273Z,7.20
2018-12-08T04:52:32.873Z,7.20
2018-12-08T04:55:00.307Z,7.20
2018-12-08T04:57:27.758Z,7.20
2018-12-08T04:59:55.246Z,7.20
2018-12-08T05:02:22.958Z,7.20
2018-12-08T05:04:50.444Z,7.20
2018-12-08T05:07:17.994Z,7.20
2018-12-08T05:09:45.589Z,7.10
2018-12-08T05:12:13.146Z,7.10
2018-12-08T05:14:40.622Z,7.00
2018-12-08T05:17:08.141Z,7.10
2018-12-08T05:19:35.648Z,7.10
2018-12-08T05:22:03.201Z,7.10
2018-12-08T05:24:30.899Z,7.10
2018-12-08T05:26:58.362Z,7.10
2018-12-08T05:29:25.771Z,7.10
2018-12-08T05:34:20.844Z,7.10
2018-12-08T05:36:48.306Z,7.10
2018-12-08T05:39:15.814Z,7.10
2018-12-08T05:41:43.327Z,7.20
2018-12-08T05:44:10.767Z,7.10
2018-12-08T05:46:38.383Z,7.10
2018-12-08T05:49:06.002Z,7.20
2018-12-08T05:51:33.583Z,7.30
2018-12-08T05:54:01.039Z,7.20
2018-12-08T05:58:59.458Z,7.30
2018-12-08T06:03:55.128Z,7.20
2018-12-08T06:06:22.751Z,7.20
2018-12-08T06:11:18.509Z,7.20
2018-12-08T06:13:46.012Z,7.20
2018-12-08T06:16:13.549Z,7.20
2018-12-08T06:18:42.086Z,7.20
2018-12-08T06:23:36.990Z,7.20
2018-12-08T06:26:15.074Z,7.20
2018-12-08T06:28:44.862Z,7.20
2018-12-08T06:31:12.350Z,7.20
2018-12-08T06:33:39.819Z,7.20
2018-12-08T06:36:07.335Z,7.20
2018-12-08T06:38:34.912Z,7.20
2018-12-08T06:41:02.477Z,7.30
2018-12-08T06:45:57.498Z,7.40
2018-12-08T06:48:25.289Z,7.50
2018-12-08T06:50:52.893Z,7.50
2018-12-08T06:53:20.486Z,7.40
2018-12-08T06:55:48.010Z,7.40
2018-12-08T06:58:15.607Z,7.50
2018-12-08T07:00:44.032Z,7.50
2018-12-08T07:03:11.503Z,7.40
2018-12-08T07:05:39.542Z,7.40
2018-12-08T07:08:07.099Z,7.40
2018-12-08T07:13:02.199Z,7.40
2018-12-08T07:15:29.839Z,7.40
2018-12-08T07:17:57.336Z,7.40
2018-12-08T07:20:24.886Z,7.50
2018-12-08T07:22:52.377Z,7.50
2018-12-08T07:25:20.005Z,7.50
2018-12-08T07:27:47.618Z,7.40
2018-12-08T07:30:15.314Z,7.40
2018-12-08T07:32:42.901Z,7.40
2018-12-08T07:35:11.763Z,7.40
2018-12-08T07:40:08.268Z,7.40
2018-12-08T07:42:37.477Z,7.40
2018-12-08T07:45:06.506Z,7.40
2018-12-08T07:47:34.104Z,7.40
2018-12-08T07:50:01.578Z,7.40
2018-12-08T07:52:29.171Z,7.50
2018-12-08T07:54:57.313Z,7.50
2018-12-08T07:57:25.832Z,7.60
2018-12-08T07:59:54.755Z,7.50
2018-12-08T08:02:22.843Z,7.50
2018-12-08T08:04:50.607Z,7.40
2018-12-08T08:07:18.106Z,7.40
2018-12-08T08:09:45.968Z,7.30
2018-12-08T08:12:13.458Z,7.30
2018-12-08T08:14:41.020Z,7.30
2018-12-08T08:17:08.489Z,7.30
2018-12-08T08:19:37.349Z,7.30
2018-12-08T08:22:04.890Z,7.20
2018-12-08T08:24:32.519Z,7.30
2018-12-08T08:27:00.113Z,7.20
2018-12-08T08:29:27.628Z,7.20
2018-12-08T08:31:55.313Z,7.30
2018-12-08T08:34:22.828Z,7.30
2018-12-08T08:36:52.812Z,7.30
2018-12-08T08:39:20.390Z,7.20
2018-12-08T08:41:47.880Z,7.30
2018-12-08T08:44:15.321Z,7.30
2018-12-08T08:46:42.814Z,7.30
2018-12-08T08:49:10.323Z,7.20
2018-12-08T08:51:40.370Z,7.20
2018-12-08T08:54:07.927Z,7.20
2018-12-08T08:56:35.505Z,7.30
2018-12-08T08:59:04.559Z,7.30
2018-12-08T09:01:32.342Z,7.40
2018-12-08T09:04:00.473Z,7.40
2018-12-08T09:06:27.951Z,7.30
2018-12-08T09:08:56.247Z,7.30
2018-12-08T09:11:23.806Z,7.30
2018-12-08T09:13:51.327Z,7.20
2018-12-08T09:16:18.826Z,7.20
2018-12-08T09:18:46.428Z,7.20
2018-12-08T09:26:09.214Z,7.20
2018-12-08T09:28:36.988Z,7.20
2018-12-08T09:31:04.624Z,7.20
2018-12-08T09:33:32.194Z,7.20
2018-12-08T09:36:00.053Z,7.20
2018-12-08T09:38:28.080Z,7.30
2018-12-08T09:40:55.621Z,7.40
2018-12-08T09:43:26.994Z,7.30
2018-12-08T09:45:54.809Z,7.40
2018-12-08T09:48:23.073Z,7.30
2018-12-08T09:53:19.986Z,7.30
2018-12-08T09:55:47.877Z,7.30
2018-12-08T09:58:15.542Z,7.30
2018-12-08T10:00:43.720Z,7.30
2018-12-08T10:03:11.530Z,7.40
2018-12-08T10:05:39.772Z,7.40
2018-12-08T10:08:07.994Z,7.50
2018-12-08T10:10:35.623Z,7.50
2018-12-08T10:13:03.833Z,7.60
2018-12-08T10:15:31.492Z,7.60
2018-12-08T10:17:59.628Z,7.60
2018-12-08T10:20:28.085Z,7.60
2018-12-08T10:22:56.741Z,7.60
2018-12-08T10:25:24.281Z,7.60
2018-12-08T10:27:52.866Z,7.70
2018-12-08T10:30:20.575Z,7.80
2018-12-08T10:32:48.334Z,7.90
2018-12-08T10:35:16.054Z,8.00
2018-12-08T10:37:43.819Z,8.30
2018-12-08T10:42:40.539Z,8.50
2018-12-08T10:45:09.385Z,8.50
2018-12-08T10:47:37.193Z,8.40
2018-12-08T10:50:08.753Z,8.40
2018-12-08T10:52:36.950Z,8.40
2018-12-08T10:55:05.486Z,8.30
2018-12-08T10:57:33.239Z,8.40
2018-12-08T11:00:01.144Z,8.50
2018-12-08T11:02:40.398Z,8.60
2018-12-08T11:05:08.024Z,8.80
2018-12-08T11:07:35.571Z,8.80
2018-12-08T11:10:04.047Z,8.80
2018-12-08T11:12:31.664Z,8.70
2018-12-08T11:15:01.037Z,8.80
2018-12-08T11:17:29.371Z,8.70
2018-12-08T11:19:56.985Z,8.70
2018-12-08T11:22:24.901Z,8.70
2018-12-08T11:24:53.231Z,8.70
2018-12-08T11:27:20.900Z,8.80
2018-12-08T11:32:15.902Z,8.80
2018-12-08T11:34:43.492Z,8.80
2018-12-08T11:39:38.679Z,8.90
2018-12-08T11:42:06.522Z,8.90
2018-12-08T11:44:34.919Z,9.00
2018-12-08T11:47:02.623Z,9.10
2018-12-08T11:49:30.845Z,9.10
2018-12-08T11:54:26.590Z,9.00
2018-12-08T11:56:54.131Z,9.00
2018-12-08T11:59:22.220Z,9.00
2018-12-08T12:01:50.654Z,9.10
2018-12-08T12:04:18.158Z,9.30
2018-12-08T12:06:45.763Z,9.40
2018-12-08T12:09:15.643Z,9.30
2018-12-08T12:11:43.237Z,9.30
2018-12-08T12:14:10.939Z,9.30
2018-12-08T12:16:38.858Z,9.30
2018-12-08T12:19:06.457Z,9.30
2018-12-08T12:21:34.277Z,9.20
2018-12-08T12:24:02.744Z,9.20
2018-12-08T12:29:00.947Z,9.10
2018-12-08T12:31:28.487Z,9.20
2018-12-08T12:33:57.179Z,9.40
2018-12-08T12:36:25.205Z,9.40
2018-12-08T12:38:53.211Z,9.40
2018-12-08T12:41:21.801Z,9.40
2018-12-08T12:46:24.773Z,9.40
2018-12-08T12:48:52.818Z,9.40
2018-12-08T12:51:20.342Z,9.30
2018-12-08T12:53:48.540Z,9.60
2018-12-08T12:56:17.757Z,9.60
2018-12-08T12:58:46.167Z,9.60
2018-12-08T13:01:15.421Z,9.60
2018-12-08T13:03:43.044Z,9.60
2018-12-08T13:06:10.857Z,9.50
2018-12-08T13:08:38.651Z,9.50
2018-12-08T13:11:06.157Z,9.50
2018-12-08T13:13:34.407Z,9.50
2018-12-08T13:16:02.062Z,9.40
2018-12-08T13:18:29.694Z,9.40
2018-12-08T13:20:57.860Z,9.30
2018-12-08T13:23:28.904Z,9.20
2018-12-08T13:26:09.828Z,9.20
2018-12-08T13:28:39.291Z,9.10
2018-12-08T13:31:07.065Z,9.10
2018-12-08T13:36:02.598Z,9.10
2018-12-08T13:38:30.234Z,9.10
2018-12-08T13:53:22.884Z,10.20
2018-12-08T13:55:50.488Z,10.10
2018-12-08T13:58:23.108Z,9.90
2018-12-08T14:03:45.124Z,9.60
2018-12-08T14:06:20.148Z,9.40
2018-12-08T14:08:59.722Z,9.30
2018-12-08T14:11:43.608Z,9.30
2018-12-08T14:14:18.961Z,9.20
2018-12-08T14:24:09.123Z,9.20
2018-12-08T14:26:36.621Z,9.20
2018-12-08T14:29:04.239Z,9.20
2018-12-08T14:34:00.402Z,9.10
2018-12-08T14:41:30.802Z,9.00
2018-12-08T14:44:09.638Z,8.90
2018-12-08T14:46:38.329Z,8.90
2018-12-08T14:49:09.624Z,8.90
2018-12-08T14:51:40.209Z,9.00
2018-12-08T14:54:08.864Z,9.00
2018-12-08T14:56:36.617Z,9.00
2018-12-08T14:59:05.863Z,9.00
2018-12-08T15:01:34.855Z,8.90
2018-12-08T15:04:04.755Z,8.90
2018-12-08T15:06:32.638Z,8.90
2018-12-08T15:09:01.184Z,8.90
2018-12-08T15:11:30.410Z,8.90
2018-12-08T15:16:28.941Z,9.00
2018-12-08T15:21:27.437Z,9.00
2018-12-08T15:26:26.639Z,8.90
2018-12-08T15:28:57.136Z,8.90
2018-12-08T15:31:26.015Z,8.90
2018-12-08T15:37:25.030Z,8.80
2018-12-08T15:40:10.290Z,8.80
2018-12-08T15:45:29.431Z,8.80
2018-12-08T15:48:06.947Z,8.70
2018-12-08T15:53:34.633Z,8.70
2018-12-08T15:56:02.419Z,8.70
2018-12-08T16:00:58.358Z,8.70
2018-12-08T16:03:26.212Z,8.70
2018-12-08T16:05:54.508Z,8.70
2018-12-08T16:08:22.766Z,8.70
2018-12-08T16:10:50.411Z,8.70
2018-12-08T16:13:18.130Z,8.70
2018-12-08T16:15:45.712Z,8.70
2018-12-08T16:18:13.370Z,8.70
2018-12-08T16:20:40.867Z,8.70
2018-12-08T16:23:08.459Z,8.70
2018-12-08T16:30:31.600Z,8.80
2018-12-08T16:33:00.091Z,8.80
2018-12-08T16:35:27.623Z,8.80
2018-12-08T16:37:57.112Z,8.70
2018-12-08T16:40:25.409Z,8.70
2018-12-08T16:42:52.918Z,8.70
2018-12-08T16:45:20.411Z,8.70
2018-12-08T16:47:47.944Z,8.70
2018-12-08T16:50:15.617Z,8.80
2018-12-08T16:52:43.187Z,8.70
2018-12-08T16:55:10.852Z,8.80
2018-12-08T16:59:02.885Z,8.70
2018-12-08T17:01:30.936Z,8.80
2018-12-08T17:06:26.069Z,8.80
2018-12-08T17:08:53.649Z,8.80
2018-12-08T17:11:21.381Z,8.80
2018-12-08T17:13:49.095Z,8.80
2018-12-08T17:16:16.722Z,8.80
2018-12-08T17:18:44.323Z,8.80
2018-12-08T17:21:12.266Z,8.80
2018-12-08T17:23:40.027Z,8.80
2018-12-08T17:26:08.494Z,8.80
2018-12-08T17:28:36.242Z,8.80
2018-12-08T17:31:04.383Z,8.80
2018-12-08T17:33:32.098Z,8.80
2018-12-08T17:35:59.648Z,8.70
2018-12-08T17:38:28.261Z,8.80
2018-12-08T17:43:25.269Z,8.80
2018-12-08T17:48:21.877Z,8.80
2018-12-08T17:50:49.416Z,8.80
2018-12-08T17:53:17.073Z,8.80
2018-12-08T17:55:44.554Z,8.90
2018-12-08T17:58:12.301Z,8.90
2018-12-08T18:00:40.729Z,8.90
2018-12-08T18:03:08.227Z,8.90
2018-12-08T18:05:36.545Z,8.90
2018-12-08T18:08:04.306Z,8.90
2018-12-08T18:10:32.520Z,8.80
2018-12-08T18:13:00.216Z,8.90
2018-12-08T18:15:27.771Z,8.90
2018-12-08T18:17:55.373Z,8.90
2018-12-08T18:20:23.632Z,8.70
2018-12-08T18:22:51.881Z,9.00
2018-12-08T18:25:20.233Z,9.00
2018-12-08T18:27:47.819Z,9.00
2018-12-08T18:30:16.139Z,9.00
2018-12-08T18:32:43.772Z,8.90
2018-12-08T18:35:11.760Z,8.90
2018-12-08T18:37:39.376Z,8.90
2018-12-08T18:40:07.263Z,8.90
2018-12-08T18:42:34.961Z,8.90
2018-12-08T18:45:02.903Z,8.80
2018-12-08T18:47:30.449Z,8.90
2018-12-08T18:49:57.953Z,8.90
2018-12-08T18:52:25.601Z,8.80
2018-12-08T18:54:53.168Z,8.80
2018-12-08T18:57:20.879Z,8.80
2018-12-08T18:59:49.478Z,8.80
2018-12-08T19:02:17.199Z,8.80
2018-12-08T19:04:44.906Z,8.70
2018-12-08T19:07:12.891Z,8.70
2018-12-08T19:09:40.821Z,8.70
2018-12-08T19:12:08.406Z,8.70
2018-12-08T19:14:35.981Z,8.80
2018-12-08T19:17:03.803Z,8.70
2018-12-08T19:19:31.447Z,8.80
2018-12-08T19:21:59.564Z,8.80
2018-12-08T19:24:27.292Z,8.80
2018-12-08T19:26:54.735Z,8.80
2018-12-08T19:29:22.354Z,8.80
2018-12-08T19:31:49.987Z,8.80
2018-12-08T19:34:17.686Z,8.80
2018-12-08T19:36:45.257Z,8.80
2018-12-08T19:39:13.420Z,8.80
2018-12-08T19:41:40.948Z,8.80
2018-12-08T19:44:08.487Z,8.80
2018-12-08T19:46:36.271Z,8.80
2018-12-08T19:49:03.934Z,8.70
2018-12-08T19:51:31.736Z,8.70
2018-12-08T19:53:59.391Z,8.70
2018-12-08T19:56:27.681Z,8.70
2018-12-08T19:58:56.036Z,8.70
2018-12-08T20:01:23.899Z,8.70
2018-12-08T20:03:51.649Z,8.70
2018-12-08T20:06:19.186Z,8.70
2018-12-08T20:08:46.751Z,8.80
2018-12-08T20:13:42.276Z,8.70
2018-12-08T20:16:10.065Z,8.80
2018-12-08T20:18:37.821Z,8.80
2018-12-08T20:21:05.563Z,8.80
2018-12-08T20:23:33.883Z,8.80
2018-12-08T20:26:02.087Z,8.80
2018-12-08T20:28:29.722Z,8.80
2018-12-08T20:30:57.515Z,8.90
2018-12-08T20:33:25.351Z,8.80
2018-12-08T20:35:52.974Z,8.80
2018-12-08T20:38:20.710Z,8.80
2018-12-08T20:40:48.404Z,8.80
2018-12-08T20:43:16.884Z,8.90
2018-12-08T20:45:45.158Z,8.90
2018-12-08T20:48:13.499Z,8.90
2018-12-08T20:50:41.137Z,8.90
2018-12-08T20:53:08.710Z,8.90
2018-12-08T20:55:36.310Z,8.90
2018-12-08T20:58:04.014Z,8.90
2018-12-08T21:00:31.639Z,8.90
2018-12-08T21:03:00.563Z,8.90
2018-12-08T21:05:28.634Z,8.90
2018-12-08T21:07:56.446Z,9.00
2018-12-08T21:10:24.163Z,9.30
2018-12-08T21:12:52.302Z,9.00
2018-12-08T21:15:20.180Z,9.00
2018-12-08T21:17:48.542Z,9.10
2018-12-08T21:20:16.240Z,9.10
2018-12-08T21:22:44.342Z,9.10
2018-12-08T21:25:12.060Z,9.10
2018-12-08T21:27:39.582Z,9.20
2018-12-08T21:30:07.579Z,9.20
2018-12-08T21:32:35.249Z,9.20
2018-12-08T21:35:02.948Z,9.20
2018-12-08T21:37:30.481Z,9.20
2018-12-08T21:39:58.153Z,9.20
2018-12-08T21:42:25.802Z,9.30
2018-12-08T21:44:53.476Z,9.30
2018-12-08T21:47:21.821Z,9.30
2018-12-08T21:49:49.370Z,9.30
2018-12-08T21:52:17.041Z,9.30
2018-12-08T21:54:44.629Z,9.20
2018-12-08T21:57:12.318Z,9.20
2018-12-08T21:59:40.153Z,9.20
2018-12-08T22:02:08.432Z,9.30
2018-12-08T22:04:36.522Z,9.30
2018-12-08T22:07:04.190Z,9.30
2018-12-08T22:12:00.340Z,9.30
2018-12-08T22:14:28.071Z,9.30
2018-12-08T22:16:55.847Z,9.30
2018-12-08T22:19:23.985Z,9.30
2018-12-08T22:21:51.682Z,9.40
2018-12-08T22:24:19.201Z,9.40
2018-12-08T22:26:46.846Z,9.40
2018-12-08T22:29:14.480Z,9.30
2018-12-08T22:34:09.530Z,9.40
2018-12-08T22:36:37.209Z,9.40
2018-12-08T22:39:06.671Z,9.40
2018-12-08T22:41:34.235Z,9.30
2018-12-08T22:44:01.767Z,9.40
2018-12-08T22:46:29.656Z,9.40
2018-12-08T22:48:57.158Z,9.40
2018-12-08T22:51:24.774Z,9.40
2018-12-08T22:53:53.949Z,9.40
2018-12-08T22:56:21.525Z,9.40
2018-12-08T22:58:49.102Z,9.40
2018-12-08T23:01:16.821Z,9.40
2018-12-08T23:03:44.503Z,9.40
2018-12-08T23:06:12.755Z,9.40
2018-12-08T23:08:40.743Z,9.40
2018-12-08T23:11:08.306Z,9.40
2018-12-08T23:13:35.949Z,9.30
2018-12-08T23:18:31.375Z,9.40
2018-12-08T23:23:27.068Z,9.50
2018-12-08T23:25:54.683Z,9.40
2018-12-08T23:30:50.266Z,9.50
2018-12-08T23:35:46.118Z,9.40
2018-12-08T23:38:13.690Z,9.50
2018-12-08T23:40:43.281Z,9.50
2018-12-08T23:43:10.875Z,9.40
2018-12-08T23:50:33.252Z,9.40
2018-12-08T23:53:02.440Z,9.40
2018-12-08T23:55:30.026Z,9.50
2018-12-08T23:57:58.582Z,9.40
